Portada
METAR-TAF:

METAR-TAF

Aeroports :

Changsha, Xina

latitud: 28-11N, longitud: 113-13E, altitud: 66 m

Observació

L'informe es va fer fa 43 minuts, a les 17:00 UTC
Vent 6 kt del Nord/Nord-Est
Temperatura 9°C
Humitat 93%
Pressió 1020 hPa
Visibilitat: 6000 m
Cel ennuvolat a una alçada de 3000 ft
Cel cobert a una alçada de 5000 ft

METAR: ZGHA 211700Z 03003MPS 6000 BKN030 OVC050 09/08 Q1020 NOSIG

Hora: 01:43 (17:43 UTC)

Pronòstic

L'informe es va fer fa 3 hores i 40 minuts, a les 14:03 UTC
Pronòstic vàlid del 21 a les 18 UTC al 22 a les 18 UTC
Vent 8 kt del Nord
Visibilitat: 3500 m
Cel ennuvolat a una alçada de 2000 ft
Cel cobert a una alçada de 5000 ft
pluja, boirina
Temporalment
l' 21 a les 23 UTC al 22 a les 05 UTC
Cel ennuvolat a una alçada de 1100 ft
Escasses núvols a una alçada de 4000 ft, Cumulonimbus.
Cel ennuvolat a una alçada de 5000 ft
xàfecs de pluja

TAF: ZGHA 211403Z 2118/2218 35004MPS 3500 -RA BR BKN020 OVC050 TX09/2207Z TN05/2123Z TEMPO 2123/2205 SHRA BKN011 FEW040CB BKN050

Observacions i pronòstics meteorològics de més de 4000 aeroports (METAR i TAF).

Les estacions disponibles són els punts grocs i vermells al mapa.

Posi el ratolí al punt desitjat per veure el nom de l'estació.

Feu clic per veure les observacions i els pronòstics meteorològics.

Per canviar el mapa: feu clic els botons verds amb una creu de color negre per apropar; al botó verd amb un guió per allunyar la imatge; o en les fletxes verdes per a mapes adjacents.


METAR-TAF: